sensor_id;sensor_type;location;lat;lon;timestamp;P1;durP1;ratioP1;P2;durP2;ratioP2
70806;SDS011;58882;52.170;5.386;2024-01-16T00:00:56;6.32;;;1.20;;
70806;SDS011;58882;52.170;5.386;2024-01-16T00:03:23;7.07;;;1.02;;
70806;SDS011;58882;52.170;5.386;2024-01-16T00:05:50;4.20;;;1.20;;
70806;SDS011;58882;52.170;5.386;2024-01-16T00:08:17;9.38;;;1.20;;
70806;SDS011;58882;52.170;5.386;2024-01-16T00:10:44;4.40;;;0.82;;
70806;SDS011;58882;52.170;5.386;2024-01-16T00:13:11;5.47;;;1.00;;
70806;SDS011;58882;52.170;5.386;2024-01-16T00:15:38;8.80;;;1.00;;
70806;SDS011;58882;52.170;5.386;2024-01-16T00:18:07;4.85;;;1.10;;
70806;SDS011;58882;52.170;5.386;2024-01-16T00:20:35;7.50;;;1.20;;
70806;SDS011;58882;52.170;5.386;2024-01-16T00:23:02;4.10;;;0.88;;
70806;SDS011;58882;52.170;5.386;2024-01-16T00:25:29;9.18;;;1.20;;
70806;SDS011;58882;52.170;5.386;2024-01-16T00:27:55;9.18;;;1.10;;
70806;SDS011;58882;52.170;5.386;2024-01-16T00:30:22;7.60;;;1.20;;
70806;SDS011;58882;52.170;5.386;2024-01-16T00:32:49;6.22;;;0.90;;
70806;SDS011;58882;52.170;5.386;2024-01-16T00:35:16;5.63;;;0.88;;
70806;SDS011;58882;52.170;5.386;2024-01-16T00:37:44;6.25;;;1.05;;
70806;SDS011;58882;52.170;5.386;2024-01-16T00:40:11;6.20;;;0.90;;
70806;SDS011;58882;52.170;5.386;2024-01-16T00:42:38;6.50;;;1.25;;
70806;SDS011;58882;52.170;5.386;2024-01-16T00:45:05;4.07;;;0.80;;
70806;SDS011;58882;52.170;5.386;2024-01-16T00:47:32;6.68;;;1.15;;
70806;SDS011;58882;52.170;5.386;2024-01-16T00:49:59;2.83;;;0.77;;
70806;SDS011;58882;52.170;5.386;2024-01-16T00:52:29;5.72;;;0.90;;
70806;SDS011;58882;52.170;5.386;2024-01-16T00:54:56;6.53;;;1.10;;
70806;SDS011;58882;52.170;5.386;2024-01-16T00:57:22;6.32;;;1.10;;
70806;SDS011;58882;52.170;5.386;2024-01-16T00:59:49;6.97;;;1.20;;
70806;SDS011;58882;52.170;5.386;2024-01-16T01:02:16;5.97;;;0.98;;
70806;SDS011;58882;52.170;5.386;2024-01-16T01:04:43;4.63;;;0.80;;
70806;SDS011;58882;52.170;5.386;2024-01-16T01:07:12;5.25;;;1.00;;
70806;SDS011;58882;52.170;5.386;2024-01-16T01:09:40;3.30;;;0.88;;
70806;SDS011;58882;52.170;5.386;2024-01-16T01:12:07;4.72;;;1.00;;
70806;SDS011;58882;52.170;5.386;2024-01-16T01:14:34;5.45;;;0.90;;
70806;SDS011;58882;52.170;5.386;2024-01-16T01:17:01;4.40;;;1.08;;
70806;SDS011;58882;52.170;5.386;2024-01-16T01:19:28;7.10;;;0.85;;
70806;SDS011;58882;52.170;5.386;2024-01-16T01:21:55;6.85;;;1.50;;
70806;SDS011;58882;52.170;5.386;2024-01-16T01:24:22;6.20;;;1.02;;
70806;SDS011;58882;52.170;5.386;2024-01-16T01:26:49;7.03;;;1.20;;
70806;SDS011;58882;52.170;5.386;2024-01-16T01:29:16;8.52;;;1.10;;
70806;SDS011;58882;52.170;5.386;2024-01-16T01:31:46;7.35;;;0.90;;
70806;SDS011;58882;52.170;5.386;2024-01-16T01:34:14;5.75;;;1.00;;
70806;SDS011;58882;52.170;5.386;2024-01-16T01:36:42;4.22;;;0.90;;
70806;SDS011;58882;52.170;5.386;2024-01-16T01:39:09;6.60;;;1.15;;
70806;SDS011;58882;52.170;5.386;2024-01-16T01:41:39;5.05;;;1.10;;
70806;SDS011;58882;52.170;5.386;2024-01-16T01:44:06;6.00;;;1.23;;
70806;SDS011;58882;52.170;5.386;2024-01-16T01:46:34;7.03;;;1.10;;
70806;SDS011;58882;52.170;5.386;2024-01-16T01:49:02;6.07;;;1.17;;
70806;SDS011;58882;52.170;5.386;2024-01-16T01:51:30;9.85;;;1.10;;
70806;SDS011;58882;52.170;5.386;2024-01-16T01:53:57;6.45;;;1.02;;
70806;SDS011;58882;52.170;5.386;2024-01-16T01:56:25;5.93;;;0.98;;
70806;SDS011;58882;52.170;5.386;2024-01-16T01:58:54;8.02;;;1.40;;
70806;SDS011;58882;52.170;5.386;2024-01-16T02:01:27;5.15;;;0.98;;
70806;SDS011;58882;52.170;5.386;2024-01-16T02:03:55;8.35;;;1.13;;
70806;SDS011;58882;52.170;5.386;2024-01-16T02:06:23;5.30;;;0.88;;
70806;SDS011;58882;52.170;5.386;2024-01-16T02:08:51;5.82;;;0.90;;
70806;SDS011;58882;52.170;5.386;2024-01-16T02:11:18;4.50;;;0.70;;
70806;SDS011;58882;52.170;5.386;2024-01-16T02:13:45;4.88;;;0.70;;
70806;SDS011;58882;52.170;5.386;2024-01-16T02:16:22;4.18;;;0.70;;
70806;SDS011;58882;52.170;5.386;2024-01-16T02:18:50;5.22;;;0.80;;
70806;SDS011;58882;52.170;5.386;2024-01-16T02:21:21;6.03;;;0.80;;
70806;SDS011;58882;52.170;5.386;2024-01-16T02:23:52;2.60;;;0.63;;
70806;SDS011;58882;52.170;5.386;2024-01-16T02:26:19;4.18;;;0.70;;
70806;SDS011;58882;52.170;5.386;2024-01-16T02:28:47;1.85;;;0.50;;
70806;SDS011;58882;52.170;5.386;2024-01-16T02:31:14;4.22;;;1.00;;
70806;SDS011;58882;52.170;5.386;2024-01-16T02:33:41;2.90;;;0.85;;
70806;SDS011;58882;52.170;5.386;2024-01-16T02:36:07;5.00;;;0.85;;
70806;SDS011;58882;52.170;5.386;2024-01-16T02:38:34;4.75;;;0.65;;
70806;SDS011;58882;52.170;5.386;2024-01-16T02:41:01;4.53;;;0.77;;
70806;SDS011;58882;52.170;5.386;2024-01-16T02:43:28;5.05;;;0.77;;
70806;SDS011;58882;52.170;5.386;2024-01-16T02:45:55;3.53;;;0.65;;
70806;SDS011;58882;52.170;5.386;2024-01-16T02:48:22;3.75;;;0.77;;
70806;SDS011;58882;52.170;5.386;2024-01-16T02:50:49;4.43;;;0.80;;
70806;SDS011;58882;52.170;5.386;2024-01-16T02:53:16;3.47;;;0.70;;
70806;SDS011;58882;52.170;5.386;2024-01-16T02:55:42;3.53;;;0.55;;
70806;SDS011;58882;52.170;5.386;2024-01-16T02:58:09;4.93;;;0.65;;
70806;SDS011;58882;52.170;5.386;2024-01-16T03:00:37;6.35;;;1.08;;
70806;SDS011;58882;52.170;5.386;2024-01-16T03:03:03;2.70;;;0.52;;
70806;SDS011;58882;52.170;5.386;2024-01-16T03:05:31;4.07;;;0.52;;
70806;SDS011;58882;52.170;5.386;2024-01-16T03:07:58;3.25;;;0.60;;
70806;SDS011;58882;52.170;5.386;2024-01-16T03:10:25;1.40;;;0.57;;
70806;SDS011;58882;52.170;5.386;2024-01-16T03:12:52;2.83;;;0.75;;
70806;SDS011;58882;52.170;5.386;2024-01-16T03:15:19;2.63;;;0.40;;
70806;SDS011;58882;52.170;5.386;2024-01-16T03:17:47;2.35;;;0.45;;
70806;SDS011;58882;52.170;5.386;2024-01-16T03:20:15;2.78;;;0.40;;
70806;SDS011;58882;52.170;5.386;2024-01-16T03:22:42;4.28;;;0.68;;
70806;SDS011;58882;52.170;5.386;2024-01-16T03:25:10;4.03;;;0.65;;
70806;SDS011;58882;52.170;5.386;2024-01-16T03:27:38;3.83;;;0.43;;
70806;SDS011;58882;52.170;5.386;2024-01-16T03:30:05;4.63;;;0.50;;
70806;SDS011;58882;52.170;5.386;2024-01-16T03:32:33;5.00;;;0.50;;
70806;SDS011;58882;52.170;5.386;2024-01-16T03:35:00;2.42;;;0.50;;
70806;SDS011;58882;52.170;5.386;2024-01-16T03:37:27;2.55;;;0.35;;
70806;SDS011;58882;52.170;5.386;2024-01-16T03:39:54;2.20;;;0.30;;
70806;SDS011;58882;52.170;5.386;2024-01-16T03:42:21;4.72;;;0.57;;
70806;SDS011;58882;52.170;5.386;2024-01-16T03:44:48;2.17;;;0.55;;
70806;SDS011;58882;52.170;5.386;2024-01-16T03:47:15;2.80;;;0.43;;
70806;SDS011;58882;52.170;5.386;2024-01-16T03:49:42;7.30;;;0.65;;
70806;SDS011;58882;52.170;5.386;2024-01-16T03:52:09;1.35;;;0.40;;
70806;SDS011;58882;52.170;5.386;2024-01-16T03:54:36;1.55;;;0.40;;
70806;SDS011;58882;52.170;5.386;2024-01-16T03:57:03;5.30;;;0.60;;
70806;SDS011;58882;52.170;5.386;2024-01-16T03:59:30;2.03;;;0.30;;
70806;SDS011;58882;52.170;5.386;2024-01-16T04:01:57;0.57;;;0.13;;
70806;SDS011;58882;52.170;5.386;2024-01-16T04:04:24;4.13;;;0.60;;
70806;SDS011;58882;52.170;5.386;2024-01-16T04:06:50;3.33;;;0.52;;
70806;SDS011;58882;52.170;5.386;2024-01-16T04:09:17;1.95;;;0.45;;
70806;SDS011;58882;52.170;5.386;2024-01-16T04:11:44;3.50;;;0.47;;
70806;SDS011;58882;52.170;5.386;2024-01-16T04:14:11;1.67;;;0.43;;
70806;SDS011;58882;52.170;5.386;2024-01-16T04:16:38;4.25;;;0.50;;
70806;SDS011;58882;52.170;5.386;2024-01-16T04:19:05;0.75;;;0.30;;
70806;SDS011;58882;52.170;5.386;2024-01-16T04:21:32;5.43;;;0.60;;
70806;SDS011;58882;52.170;5.386;2024-01-16T04:23:58;10.63;;;0.80;;
70806;SDS011;58882;52.170;5.386;2024-01-16T04:26:25;4.78;;;0.40;;
70806;SDS011;58882;52.170;5.386;2024-01-16T04:28:52;3.90;;;0.40;;
70806;SDS011;58882;52.170;5.386;2024-01-16T04:31:19;1.38;;;0.40;;
70806;SDS011;58882;52.170;5.386;2024-01-16T04:33:48;2.20;;;0.38;;
70806;SDS011;58882;52.170;5.386;2024-01-16T04:36:15;4.15;;;0.70;;
70806;SDS011;58882;52.170;5.386;2024-01-16T04:38:42;4.78;;;0.60;;
70806;SDS011;58882;52.170;5.386;2024-01-16T04:41:09;2.45;;;0.45;;
70806;SDS011;58882;52.170;5.386;2024-01-16T04:43:36;3.83;;;0.55;;
70806;SDS011;58882;52.170;5.386;2024-01-16T04:46:04;2.08;;;0.32;;
70806;SDS011;58882;52.170;5.386;2024-01-16T04:48:31;2.85;;;0.63;;
70806;SDS011;58882;52.170;5.386;2024-01-16T04:50:57;3.00;;;0.35;;
70806;SDS011;58882;52.170;5.386;2024-01-16T04:53:24;1.65;;;0.50;;
70806;SDS011;58882;52.170;5.386;2024-01-16T04:55:51;5.30;;;0.70;;
70806;SDS011;58882;52.170;5.386;2024-01-16T04:58:18;5.40;;;0.88;;
70806;SDS011;58882;52.170;5.386;2024-01-16T05:00:45;3.10;;;0.60;;
70806;SDS011;58882;52.170;5.386;2024-01-16T05:03:14;3.60;;;0.52;;
70806;SDS011;58882;52.170;5.386;2024-01-16T05:05:40;2.72;;;0.65;;
70806;SDS011;58882;52.170;5.386;2024-01-16T05:08:08;2.85;;;0.47;;
70806;SDS011;58882;52.170;5.386;2024-01-16T05:10:35;3.83;;;0.60;;
70806;SDS011;58882;52.170;5.386;2024-01-16T05:13:01;3.25;;;0.60;;
70806;SDS011;58882;52.170;5.386;2024-01-16T05:15:28;1.80;;;0.65;;
70806;SDS011;58882;52.170;5.386;2024-01-16T05:17:55;3.85;;;0.73;;
70806;SDS011;58882;52.170;5.386;2024-01-16T05:20:22;2.25;;;0.63;;
70806;SDS011;58882;52.170;5.386;2024-01-16T05:22:49;8.48;;;1.00;;
70806;SDS011;58882;52.170;5.386;2024-01-16T05:25:16;2.22;;;0.50;;
70806;SDS011;58882;52.170;5.386;2024-01-16T05:27:44;5.20;;;1.00;;
70806;SDS011;58882;52.170;5.386;2024-01-16T05:30:11;1.67;;;0.63;;
70806;SDS011;58882;52.170;5.386;2024-01-16T05:32:38;2.28;;;0.73;;
70806;SDS011;58882;52.170;5.386;2024-01-16T05:35:07;4.30;;;0.80;;
70806;SDS011;58882;52.170;5.386;2024-01-16T05:37:35;1.35;;;0.70;;
70806;SDS011;58882;52.170;5.386;2024-01-16T05:40:02;5.32;;;1.20;;
70806;SDS011;58882;52.170;5.386;2024-01-16T05:42:29;5.97;;;1.10;;
70806;SDS011;58882;52.170;5.386;2024-01-16T05:44:56;5.18;;;1.30;;
70806;SDS011;58882;52.170;5.386;2024-01-16T05:47:23;3.25;;;0.88;;
70806;SDS011;58882;52.170;5.386;2024-01-16T05:49:54;4.50;;;1.00;;
70806;SDS011;58882;52.170;5.386;2024-01-16T05:52:22;3.13;;;0.95;;
70806;SDS011;58882;52.170;5.386;2024-01-16T05:54:49;3.75;;;1.00;;
70806;SDS011;58882;52.170;5.386;2024-01-16T05:57:16;5.22;;;1.15;;
70806;SDS011;58882;52.170;5.386;2024-01-16T05:59:43;2.70;;;1.10;;
70806;SDS011;58882;52.170;5.386;2024-01-16T06:02:10;3.67;;;1.15;;
70806;SDS011;58882;52.170;5.386;2024-01-16T06:04:37;5.85;;;1.00;;
70806;SDS011;58882;52.170;5.386;2024-01-16T06:07:04;3.13;;;1.05;;
70806;SDS011;58882;52.170;5.386;2024-01-16T06:09:33;3.85;;;0.95;;
70806;SDS011;58882;52.170;5.386;2024-01-16T06:12:04;7.07;;;1.50;;
70806;SDS011;58882;52.170;5.386;2024-01-16T06:14:32;4.05;;;1.17;;
70806;SDS011;58882;52.170;5.386;2024-01-16T06:16:59;4.53;;;1.23;;
70806;SDS011;58882;52.170;5.386;2024-01-16T06:19:26;6.28;;;1.30;;
70806;SDS011;58882;52.170;5.386;2024-01-16T06:21:53;3.35;;;1.15;;
70806;SDS011;58882;52.170;5.386;2024-01-16T06:24:20;5.07;;;1.23;;
70806;SDS011;58882;52.170;5.386;2024-01-16T06:26:46;2.67;;;1.20;;
70806;SDS011;58882;52.170;5.386;2024-01-16T06:29:13;4.38;;;1.08;;
70806;SDS011;58882;52.170;5.386;2024-01-16T06:31:53;4.20;;;1.00;;
70806;SDS011;58882;52.170;5.386;2024-01-16T06:34:20;3.63;;;1.10;;
70806;SDS011;58882;52.170;5.386;2024-01-16T06:36:47;4.40;;;0.90;;
70806;SDS011;58882;52.170;5.386;2024-01-16T06:39:14;2.58;;;0.88;;
70806;SDS011;58882;52.170;5.386;2024-01-16T06:41:41;1.77;;;0.73;;
70806;SDS011;58882;52.170;5.386;2024-01-16T06:44:08;5.60;;;1.10;;
70806;SDS011;58882;52.170;5.386;2024-01-16T06:46:35;3.63;;;1.10;;
70806;SDS011;58882;52.170;5.386;2024-01-16T06:49:02;4.43;;;1.00;;
70806;SDS011;58882;52.170;5.386;2024-01-16T06:51:28;7.07;;;1.10;;
70806;SDS011;58882;52.170;5.386;2024-01-16T06:53:55;5.00;;;0.82;;
70806;SDS011;58882;52.170;5.386;2024-01-16T06:56:22;3.38;;;0.93;;
70806;SDS011;58882;52.170;5.386;2024-01-16T06:58:50;4.72;;;0.98;;
70806;SDS011;58882;52.170;5.386;2024-01-16T07:01:18;2.80;;;0.90;;
70806;SDS011;58882;52.170;5.386;2024-01-16T07:03:45;4.38;;;1.10;;
70806;SDS011;58882;52.170;5.386;2024-01-16T07:06:11;3.25;;;0.88;;
70806;SDS011;58882;52.170;5.386;2024-01-16T07:08:38;3.25;;;1.00;;
70806;SDS011;58882;52.170;5.386;2024-01-16T07:11:05;4.45;;;1.13;;
70806;SDS011;58882;52.170;5.386;2024-01-16T07:13:35;6.47;;;1.40;;
70806;SDS011;58882;52.170;5.386;2024-01-16T07:16:02;4.88;;;1.20;;
70806;SDS011;58882;52.170;5.386;2024-01-16T07:18:29;4.63;;;1.17;;
70806;SDS011;58882;52.170;5.386;2024-01-16T07:20:56;5.45;;;1.40;;
70806;SDS011;58882;52.170;5.386;2024-01-16T07:23:23;4.90;;;1.40;;
70806;SDS011;58882;52.170;5.386;2024-01-16T07:25:50;4.30;;;1.38;;
70806;SDS011;58882;52.170;5.386;2024-01-16T07:28:17;8.23;;;1.88;;
70806;SDS011;58882;52.170;5.386;2024-01-16T07:30:43;6.60;;;1.67;;
70806;SDS011;58882;52.170;5.386;2024-01-16T07:33:10;5.47;;;1.92;;
70806;SDS011;58882;52.170;5.386;2024-01-16T07:35:38;7.38;;;1.83;;
70806;SDS011;58882;52.170;5.386;2024-01-16T07:38:07;5.20;;;1.83;;
70806;SDS011;58882;52.170;5.386;2024-01-16T07:40:34;6.35;;;2.10;;
70806;SDS011;58882;52.170;5.386;2024-01-16T07:43:01;8.13;;;2.20;;
70806;SDS011;58882;52.170;5.386;2024-01-16T07:45:28;6.53;;;2.00;;
70806;SDS011;58882;52.170;5.386;2024-01-16T07:47:55;7.38;;;2.15;;
70806;SDS011;58882;52.170;5.386;2024-01-16T07:50:22;7.32;;;2.45;;
70806;SDS011;58882;52.170;5.386;2024-01-16T07:52:49;6.45;;;2.20;;
70806;SDS011;58882;52.170;5.386;2024-01-16T07:55:16;9.73;;;2.67;;
70806;SDS011;58882;52.170;5.386;2024-01-16T07:57:48;6.68;;;2.47;;
70806;SDS011;58882;52.170;5.386;2024-01-16T08:00:15;6.47;;;2.60;;
70806;SDS011;58882;52.170;5.386;2024-01-16T08:02:42;7.53;;;3.00;;
70806;SDS011;58882;52.170;5.386;2024-01-16T08:05:10;7.75;;;2.88;;
70806;SDS011;58882;52.170;5.386;2024-01-16T08:07:37;7.68;;;2.85;;
70806;SDS011;58882;52.170;5.386;2024-01-16T08:10:04;7.63;;;2.70;;
70806;SDS011;58882;52.170;5.386;2024-01-16T08:12:31;10.00;;;3.47;;
70806;SDS011;58882;52.170;5.386;2024-01-16T08:14:58;7.68;;;3.03;;
70806;SDS011;58882;52.170;5.386;2024-01-16T08:17:25;7.95;;;2.80;;
70806;SDS011;58882;52.170;5.386;2024-01-16T08:19:52;8.50;;;2.78;;
70806;SDS011;58882;52.170;5.386;2024-01-16T08:22:18;11.13;;;3.30;;
70806;SDS011;58882;52.170;5.386;2024-01-16T08:24:45;10.07;;;2.88;;
70806;SDS011;58882;52.170;5.386;2024-01-16T08:27:12;7.03;;;3.03;;
70806;SDS011;58882;52.170;5.386;2024-01-16T08:29:39;11.23;;;3.38;;
70806;SDS011;58882;52.170;5.386;2024-01-16T08:32:06;8.40;;;3.08;;
70806;SDS011;58882;52.170;5.386;2024-01-16T08:34:33;9.02;;;3.10;;
70806;SDS011;58882;52.170;5.386;2024-01-16T08:37:00;7.30;;;2.80;;
70806;SDS011;58882;52.170;5.386;2024-01-16T08:39:27;10.10;;;2.70;;
70806;SDS011;58882;52.170;5.386;2024-01-16T08:41:55;7.63;;;3.05;;
70806;SDS011;58882;52.170;5.386;2024-01-16T08:44:24;8.27;;;2.97;;
70806;SDS011;58882;52.170;5.386;2024-01-16T08:46:50;10.07;;;3.50;;
70806;SDS011;58882;52.170;5.386;2024-01-16T08:49:17;7.70;;;2.67;;
70806;SDS011;58882;52.170;5.386;2024-01-16T08:51:46;8.85;;;2.92;;
70806;SDS011;58882;52.170;5.386;2024-01-16T08:54:13;8.55;;;2.53;;
70806;SDS011;58882;52.170;5.386;2024-01-16T08:56:40;9.07;;;2.80;;
70806;SDS011;58882;52.170;5.386;2024-01-16T08:59:07;7.63;;;2.65;;
70806;SDS011;58882;52.170;5.386;2024-01-16T09:01:36;10.32;;;2.72;;
70806;SDS011;58882;52.170;5.386;2024-01-16T09:04:03;9.98;;;2.70;;
70806;SDS011;58882;52.170;5.386;2024-01-16T09:06:30;8.45;;;2.63;;
70806;SDS011;58882;52.170;5.386;2024-01-16T09:08:57;10.23;;;2.67;;
70806;SDS011;58882;52.170;5.386;2024-01-16T09:11:24;8.00;;;2.72;;
70806;SDS011;58882;52.170;5.386;2024-01-16T09:13:51;8.27;;;2.40;;
70806;SDS011;58882;52.170;5.386;2024-01-16T09:16:18;7.57;;;2.40;;
70806;SDS011;58882;52.170;5.386;2024-01-16T09:18:45;10.07;;;2.63;;
70806;SDS011;58882;52.170;5.386;2024-01-16T09:21:13;9.88;;;2.42;;
70806;SDS011;58882;52.170;5.386;2024-01-16T09:23:40;7.68;;;2.25;;
70806;SDS011;58882;52.170;5.386;2024-01-16T09:26:07;6.75;;;2.50;;
70806;SDS011;58882;52.170;5.386;2024-01-16T09:28:34;9.50;;;2.30;;
70806;SDS011;58882;52.170;5.386;2024-01-16T09:31:01;7.20;;;2.15;;
70806;SDS011;58882;52.170;5.386;2024-01-16T09:33:28;10.35;;;2.22;;
70806;SDS011;58882;52.170;5.386;2024-01-16T09:35:55;7.43;;;2.00;;
70806;SDS011;58882;52.170;5.386;2024-01-16T09:38:22;10.15;;;1.98;;
70806;SDS011;58882;52.170;5.386;2024-01-16T09:40:49;6.32;;;1.80;;
70806;SDS011;58882;52.170;5.386;2024-01-16T09:43:18;7.57;;;2.08;;
70806;SDS011;58882;52.170;5.386;2024-01-16T09:45:46;10.95;;;2.08;;
70806;SDS011;58882;52.170;5.386;2024-01-16T09:48:15;8.80;;;2.20;;
70806;SDS011;58882;52.170;5.386;2024-01-16T09:50:42;5.13;;;1.70;;
70806;SDS011;58882;52.170;5.386;2024-01-16T09:53:09;5.20;;;1.88;;
70806;SDS011;58882;52.170;5.386;2024-01-16T09:55:37;5.28;;;1.60;;
70806;SDS011;58882;52.170;5.386;2024-01-16T09:58:04;6.95;;;1.50;;
70806;SDS011;58882;52.170;5.386;2024-01-16T10:00:35;4.32;;;1.30;;
70806;SDS011;58882;52.170;5.386;2024-01-16T10:03:02;4.25;;;1.58;;
70806;SDS011;58882;52.170;5.386;2024-01-16T10:05:31;2.58;;;1.30;;
70806;SDS011;58882;52.170;5.386;2024-01-16T10:08:00;2.45;;;1.20;;
70806;SDS011;58882;52.170;5.386;2024-01-16T10:10:26;6.43;;;1.48;;
70806;SDS011;58882;52.170;5.386;2024-01-16T10:13:11;6.60;;;1.52;;
70806;SDS011;58882;52.170;5.386;2024-01-16T10:15:40;6.20;;;1.38;;
70806;SDS011;58882;52.170;5.386;2024-01-16T10:18:19;7.88;;;1.35;;
70806;SDS011;58882;52.170;5.386;2024-01-16T10:20:49;2.70;;;1.15;;
70806;SDS011;58882;52.170;5.386;2024-01-16T10:23:26;4.57;;;1.30;;
70806;SDS011;58882;52.170;5.386;2024-01-16T10:26:10;4.90;;;1.30;;
70806;SDS011;58882;52.170;5.386;2024-01-16T10:28:38;5.78;;;1.27;;
70806;SDS011;58882;52.170;5.386;2024-01-16T10:33:35;4.32;;;1.30;;
70806;SDS011;58882;52.170;5.386;2024-01-16T10:36:09;3.65;;;1.17;;
70806;SDS011;58882;52.170;5.386;2024-01-16T10:38:41;4.10;;;1.30;;
70806;SDS011;58882;52.170;5.386;2024-01-16T10:41:17;5.13;;;1.40;;
70806;SDS011;58882;52.170;5.386;2024-01-16T10:43:44;5.18;;;1.33;;
70806;SDS011;58882;52.170;5.386;2024-01-16T10:46:15;4.88;;;1.27;;
70806;SDS011;58882;52.170;5.386;2024-01-16T10:49:02;4.35;;;1.50;;
70806;SDS011;58882;52.170;5.386;2024-01-16T10:54:07;3.30;;;1.40;;
70806;SDS011;58882;52.170;5.386;2024-01-16T10:56:44;4.28;;;1.30;;
70806;SDS011;58882;52.170;5.386;2024-01-16T10:59:31;5.03;;;1.40;;
70806;SDS011;58882;52.170;5.386;2024-01-16T11:02:14;4.13;;;1.15;;
70806;SDS011;58882;52.170;5.386;2024-01-16T11:04:43;5.22;;;1.27;;
70806;SDS011;58882;52.170;5.386;2024-01-16T11:07:10;5.25;;;1.35;;
70806;SDS011;58882;52.170;5.386;2024-01-16T11:09:39;4.28;;;1.60;;
70806;SDS011;58882;52.170;5.386;2024-01-16T11:12:08;5.07;;;1.50;;
70806;SDS011;58882;52.170;5.386;2024-01-16T11:14:34;5.20;;;1.40;;
70806;SDS011;58882;52.170;5.386;2024-01-16T11:17:02;3.47;;;1.27;;
70806;SDS011;58882;52.170;5.386;2024-01-16T11:19:31;4.63;;;1.48;;
70806;SDS011;58882;52.170;5.386;2024-01-16T11:22:02;4.78;;;1.33;;
70806;SDS011;58882;52.170;5.386;2024-01-16T11:26:58;3.83;;;1.20;;
70806;SDS011;58882;52.170;5.386;2024-01-16T11:31:55;3.55;;;1.20;;
70806;SDS011;58882;52.170;5.386;2024-01-16T11:34:52;4.10;;;1.50;;
70806;SDS011;58882;52.170;5.386;2024-01-16T11:37:26;3.63;;;1.30;;
70806;SDS011;58882;52.170;5.386;2024-01-16T11:42:44;5.53;;;1.48;;
70806;SDS011;58882;52.170;5.386;2024-01-16T11:48:15;4.68;;;1.42;;
70806;SDS011;58882;52.170;5.386;2024-01-16T11:50:44;5.93;;;1.27;;
70806;SDS011;58882;52.170;5.386;2024-01-16T11:53:30;4.75;;;1.27;;
70806;SDS011;58882;52.170;5.386;2024-01-16T11:56:21;3.83;;;1.15;;
70806;SDS011;58882;52.170;5.386;2024-01-16T12:05:18;4.35;;;1.30;;
70806;SDS011;58882;52.170;5.386;2024-01-16T12:07:54;3.20;;;1.10;;
70806;SDS011;58882;52.170;5.386;2024-01-16T12:10:22;4.00;;;1.33;;
70806;SDS011;58882;52.170;5.386;2024-01-16T12:12:50;6.32;;;1.42;;
70806;SDS011;58882;52.170;5.386;2024-01-16T12:15:23;7.65;;;1.40;;
70806;SDS011;58882;52.170;5.386;2024-01-16T12:17:59;3.83;;;1.10;;
70806;SDS011;58882;52.170;5.386;2024-01-16T12:20:31;3.63;;;1.05;;
70806;SDS011;58882;52.170;5.386;2024-01-16T12:25:26;3.70;;;1.23;;
70806;SDS011;58882;52.170;5.386;2024-01-16T12:28:14;2.92;;;1.00;;
70806;SDS011;58882;52.170;5.386;2024-01-16T12:30:58;3.28;;;1.10;;
70806;SDS011;58882;52.170;5.386;2024-01-16T12:33:25;3.28;;;0.98;;
70806;SDS011;58882;52.170;5.386;2024-01-16T12:35:59;3.80;;;1.17;;
70806;SDS011;58882;52.170;5.386;2024-01-16T12:38:29;4.45;;;1.33;;
70806;SDS011;58882;52.170;5.386;2024-01-16T12:40:56;5.93;;;1.23;;
70806;SDS011;58882;52.170;5.386;2024-01-16T12:43:25;3.50;;;1.30;;
70806;SDS011;58882;52.170;5.386;2024-01-16T12:45:55;3.80;;;1.20;;
70806;SDS011;58882;52.170;5.386;2024-01-16T12:48:24;2.80;;;1.00;;
70806;SDS011;58882;52.170;5.386;2024-01-16T12:51:02;4.35;;;1.05;;
70806;SDS011;58882;52.170;5.386;2024-01-16T12:53:31;3.20;;;1.10;;
70806;SDS011;58882;52.170;5.386;2024-01-16T12:56:00;5.70;;;1.50;;
70806;SDS011;58882;52.170;5.386;2024-01-16T12:58:34;4.70;;;1.50;;
70806;SDS011;58882;52.170;5.386;2024-01-16T13:04:05;3.70;;;1.20;;
70806;SDS011;58882;52.170;5.386;2024-01-16T13:06:33;4.38;;;1.20;;
70806;SDS011;58882;52.170;5.386;2024-01-16T13:09:04;4.50;;;1.20;;
70806;SDS011;58882;52.170;5.386;2024-01-16T13:14:13;3.33;;;1.30;;
70806;SDS011;58882;52.170;5.386;2024-01-16T13:16:40;4.53;;;1.25;;
70806;SDS011;58882;52.170;5.386;2024-01-16T13:19:07;3.67;;;1.10;;
70806;SDS011;58882;52.170;5.386;2024-01-16T13:21:36;5.25;;;1.20;;
70806;SDS011;58882;52.170;5.386;2024-01-16T13:24:03;5.75;;;1.45;;
70806;SDS011;58882;52.170;5.386;2024-01-16T13:26:31;6.47;;;1.45;;
70806;SDS011;58882;52.170;5.386;2024-01-16T13:28:59;6.53;;;1.40;;
70806;SDS011;58882;52.170;5.386;2024-01-16T13:31:26;5.10;;;1.40;;
70806;SDS011;58882;52.170;5.386;2024-01-16T13:33:53;3.08;;;1.27;;
70806;SDS011;58882;52.170;5.386;2024-01-16T13:36:23;4.70;;;1.40;;
70806;SDS011;58882;52.170;5.386;2024-01-16T13:39:09;4.82;;;1.25;;
70806;SDS011;58882;52.170;5.386;2024-01-16T13:41:39;4.95;;;1.20;;
70806;SDS011;58882;52.170;5.386;2024-01-16T13:44:06;3.78;;;1.30;;
70806;SDS011;58882;52.170;5.386;2024-01-16T13:46:33;4.00;;;1.20;;
70806;SDS011;58882;52.170;5.386;2024-01-16T13:49:20;3.35;;;1.30;;
70806;SDS011;58882;52.170;5.386;2024-01-16T13:51:47;3.15;;;1.20;;
70806;SDS011;58882;52.170;5.386;2024-01-16T13:54:15;3.92;;;1.42;;
70806;SDS011;58882;52.170;5.386;2024-01-16T13:56:42;3.08;;;1.25;;
70806;SDS011;58882;52.170;5.386;2024-01-16T13:59:30;4.00;;;1.30;;
70806;SDS011;58882;52.170;5.386;2024-01-16T14:01:57;3.83;;;1.25;;
70806;SDS011;58882;52.170;5.386;2024-01-16T14:04:24;4.90;;;1.23;;
70806;SDS011;58882;52.170;5.386;2024-01-16T14:06:51;2.72;;;1.30;;
70806;SDS011;58882;52.170;5.386;2024-01-16T14:09:38;4.43;;;1.30;;
70806;SDS011;58882;52.170;5.386;2024-01-16T14:12:05;5.38;;;1.30;;
70806;SDS011;58882;52.170;5.386;2024-01-16T14:14:35;4.70;;;1.17;;
70806;SDS011;58882;52.170;5.386;2024-01-16T14:17:02;5.55;;;1.42;;
70806;SDS011;58882;52.170;5.386;2024-01-16T14:19:29;4.05;;;1.20;;
70806;SDS011;58882;52.170;5.386;2024-01-16T14:21:57;6.80;;;2.10;;
70806;SDS011;58882;52.170;5.386;2024-01-16T14:24:24;3.67;;;1.23;;
70806;SDS011;58882;52.170;5.386;2024-01-16T14:26:52;3.33;;;1.20;;
70806;SDS011;58882;52.170;5.386;2024-01-16T14:29:19;3.42;;;1.10;;
70806;SDS011;58882;52.170;5.386;2024-01-16T14:31:46;3.55;;;1.30;;
70806;SDS011;58882;52.170;5.386;2024-01-16T14:34:16;4.60;;;1.30;;
70806;SDS011;58882;52.170;5.386;2024-01-16T14:36:45;4.43;;;1.20;;
70806;SDS011;58882;52.170;5.386;2024-01-16T14:39:13;3.67;;;1.20;;
70806;SDS011;58882;52.170;5.386;2024-01-16T14:41:44;4.05;;;1.17;;
70806;SDS011;58882;52.170;5.386;2024-01-16T14:44:11;4.00;;;1.20;;
70806;SDS011;58882;52.170;5.386;2024-01-16T14:46:42;4.05;;;1.33;;
70806;SDS011;58882;52.170;5.386;2024-01-16T14:49:16;3.92;;;1.35;;
70806;SDS011;58882;52.170;5.386;2024-01-16T14:51:43;3.85;;;1.27;;
70806;SDS011;58882;52.170;5.386;2024-01-16T14:54:10;4.15;;;1.35;;
70806;SDS011;58882;52.170;5.386;2024-01-16T14:56:37;4.80;;;1.38;;
70806;SDS011;58882;52.170;5.386;2024-01-16T14:59:04;3.10;;;1.27;;
70806;SDS011;58882;52.170;5.386;2024-01-16T15:01:31;3.50;;;1.70;;
70806;SDS011;58882;52.170;5.386;2024-01-16T15:03:59;3.95;;;1.23;;
70806;SDS011;58882;52.170;5.386;2024-01-16T15:06:26;3.90;;;1.40;;
70806;SDS011;58882;52.170;5.386;2024-01-16T15:08:54;3.45;;;1.27;;
70806;SDS011;58882;52.170;5.386;2024-01-16T15:11:21;3.50;;;1.20;;
70806;SDS011;58882;52.170;5.386;2024-01-16T15:13:48;3.85;;;1.38;;
70806;SDS011;58882;52.170;5.386;2024-01-16T15:16:16;6.00;;;1.50;;
70806;SDS011;58882;52.170;5.386;2024-01-16T15:21:12;5.18;;;1.55;;
70806;SDS011;58882;52.170;5.386;2024-01-16T15:23:39;3.38;;;1.30;;
70806;SDS011;58882;52.170;5.386;2024-01-16T15:26:06;5.65;;;1.52;;
70806;SDS011;58882;52.170;5.386;2024-01-16T15:28:33;8.07;;;1.48;;